createdAt,value
2023-04-03T00:01:46.264Z,83.82
2023-04-03T00:06:50.100Z,84.04
2023-04-03T00:11:54.094Z,84.22
2023-04-03T00:16:57.765Z,84.44
2023-04-03T00:22:01.473Z,84.39
2023-04-03T00:27:06.381Z,84.56
2023-04-03T00:32:10.094Z,84.90
2023-04-03T00:37:13.888Z,84.95
2023-04-03T00:42:18.510Z,85.01
2023-04-03T00:47:22.403Z,85.07
2023-04-03T00:52:30.342Z,85.11
2023-04-03T00:57:34.609Z,85.23
2023-04-03T01:02:39.345Z,85.61
2023-04-03T01:07:43.692Z,85.60
2023-04-03T01:12:48.953Z,85.74
2023-04-03T01:18:01.492Z,86.53
2023-04-03T01:23:12.225Z,86.42
2023-04-03T01:28:22.963Z,86.51
2023-04-03T01:33:26.677Z,86.61
2023-04-03T01:38:31.205Z,86.56
2023-04-03T01:43:35.043Z,87.13
2023-04-03T01:48:39.085Z,87.04
2023-04-03T01:53:42.805Z,87.35
2023-04-03T01:58:46.654Z,87.72
2023-04-03T02:03:51.522Z,87.70
2023-04-03T02:08:55.314Z,88.15
2023-04-03T02:13:59.002Z,88.90
2023-04-03T02:19:03.090Z,88.94
2023-04-03T02:24:07.791Z,89.16
2023-04-03T02:29:11.879Z,89.20
2023-04-03T02:34:15.627Z,89.27
2023-04-03T02:39:20.047Z,90.21
2023-04-03T02:44:26.321Z,90.43
2023-04-03T02:49:30.582Z,89.97
2023-04-03T02:54:34.421Z,90.65
2023-04-03T02:59:43.123Z,90.76
2023-04-03T03:04:48.472Z,90.67
2023-04-03T03:09:52.182Z,91.08
2023-04-03T03:14:56.030Z,91.69
2023-04-03T03:19:59.808Z,92.17
2023-04-03T03:25:05.121Z,92.65
2023-04-03T03:30:09.510Z,92.44
2023-04-03T03:35:13.990Z,93.17
2023-04-03T03:40:18.186Z,92.71
2023-04-03T03:45:22.548Z,93.02
2023-04-03T03:50:26.477Z,92.96
2023-04-03T03:55:30.364Z,93.51
2023-04-03T04:00:34.852Z,93.97
2023-04-03T04:05:39.567Z,93.47
2023-04-03T04:10:43.939Z,94.30
2023-04-03T04:15:50.132Z,94.74
2023-04-03T04:20:54.335Z,94.60
2023-04-03T04:25:59.144Z,94.47
2023-04-03T04:31:04.560Z,95.17
2023-04-03T04:36:09.424Z,95.54
2023-04-03T04:41:14.843Z,94.97
2023-04-03T04:46:19.553Z,94.92
2023-04-03T04:51:27.496Z,95.47
2023-04-03T04:56:32.994Z,95.05
2023-04-03T05:01:37.552Z,94.38
2023-04-03T05:06:45.522Z,94.44
2023-04-03T05:11:52.755Z,94.33
2023-04-03T05:16:59.484Z,95.24
2023-04-03T05:22:05.951Z,94.89
2023-04-03T05:27:10.174Z,94.41
2023-04-03T05:32:16.046Z,95.07
2023-04-03T05:37:20.153Z,94.57
2023-04-03T05:42:24.566Z,94.90
2023-04-03T05:47:28.557Z,94.69
2023-04-03T05:52:38.036Z,94.66
2023-04-03T05:57:42.483Z,94.44
2023-04-03T06:02:46.612Z,94.21
2023-04-03T06:07:55.006Z,93.94
2023-04-03T06:12:58.852Z,94.26
2023-04-03T06:18:02.686Z,94.07
2023-04-03T06:23:08.611Z,93.43
2023-04-03T06:28:12.820Z,93.44
2023-04-03T06:33:16.747Z,93.22
2023-04-03T06:38:20.462Z,93.02
2023-04-03T06:43:24.693Z,92.91
2023-04-03T06:48:28.608Z,92.14
2023-04-03T06:53:32.463Z,91.80
2023-04-03T06:58:36.066Z,91.67
2023-04-03T07:03:40.479Z,91.26
2023-04-03T07:08:45.650Z,90.67
2023-04-03T07:13:49.791Z,90.27
2023-04-03T07:18:53.479Z,89.88
2023-04-03T07:23:57.218Z,89.57
2023-04-03T07:29:01.299Z,89.73
2023-04-03T07:34:05.281Z,88.13
2023-04-03T07:39:09.560Z,87.65
2023-04-03T07:44:13.232Z,88.24
2023-04-03T07:49:17.971Z,88.22
2023-04-03T07:54:21.808Z,85.28
2023-04-03T07:59:25.640Z,86.15
2023-04-03T08:04:29.481Z,85.59
2023-04-03T08:09:33.320Z,85.07
2023-04-03T08:14:37.055Z,83.32
2023-04-03T08:19:41.311Z,84.51
2023-04-03T08:24:56.221Z,84.84
2023-04-03T08:30:02.660Z,80.43
2023-04-03T08:35:06.632Z,79.97
2023-04-03T08:40:15.708Z,79.20
2023-04-03T08:45:22.801Z,81.34
2023-04-03T08:50:31.997Z,80.47
2023-04-03T08:55:45.479Z,77.31
2023-04-03T09:01:05.472Z,78.09
2023-04-03T09:06:18.901Z,76.27
2023-04-03T09:11:29.805Z,74.46
2023-04-03T09:16:59.760Z,74.50
2023-04-03T09:22:23.869Z,74.18
2023-04-03T09:27:28.355Z,69.83
2023-04-03T09:32:35.372Z,69.82
2023-04-03T09:37:42.981Z,71.19
2023-04-03T09:42:51.931Z,71.27
2023-04-03T09:48:16.192Z,69.03
2023-04-03T09:53:32.119Z,71.34
2023-04-03T09:58:49.529Z,69.81
2023-04-03T10:04:10.429Z,68.51
2023-04-03T10:09:34.550Z,68.61
2023-04-03T10:14:40.543Z,70.10
2023-04-03T10:19:53.752Z,66.85
2023-04-03T10:25:24.832Z,66.46
2023-04-03T10:30:58.914Z,66.28
2023-04-03T10:36:40.262Z,65.87
2023-04-03T10:42:17.240Z,64.52
2023-04-03T10:47:47.453Z,65.25
2023-04-03T10:52:59.360Z,65.68
2023-04-03T10:58:04.925Z,65.39
2023-04-03T11:03:32.564Z,63.12
2023-04-03T11:09:04.305Z,64.93
2023-04-03T11:14:21.666Z,65.58
2023-04-03T11:20:08.223Z,65.54
2023-04-03T11:25:11.984Z,64.95
2023-04-03T11:30:21.551Z,61.84
2023-04-03T11:35:26.408Z,63.55
2023-04-03T11:40:33.724Z,63.77
2023-04-03T11:46:00.478Z,63.72
2023-04-03T11:51:30.158Z,60.87
2023-04-03T11:56:34.324Z,60.69
2023-04-03T12:01:55.625Z,59.18
2023-04-03T12:07:14.988Z,58.97
2023-04-03T12:12:33.664Z,59.89
2023-04-03T12:17:38.243Z,57.77
2023-04-03T12:23:20.667Z,58.17
2023-04-03T12:28:25.875Z,57.13
2023-04-03T12:34:05.184Z,57.95
2023-04-03T12:39:26.708Z,56.94
2023-04-03T12:45:11.403Z,56.17
2023-04-03T12:50:34.338Z,57.18
2023-04-03T12:55:38.271Z,56.63
2023-04-03T13:00:42.637Z,56.53
2023-04-03T13:05:47.031Z,56.89
2023-04-03T13:11:01.719Z,56.31
2023-04-03T13:16:15.181Z,55.69
2023-04-03T13:21:23.105Z,55.74
2023-04-03T13:26:30.287Z,54.90
2023-04-03T13:31:39.521Z,55.14
2023-04-03T13:36:52.587Z,54.88
2023-04-03T13:41:58.883Z,54.94
2023-04-03T13:47:11.960Z,53.72
2023-04-03T13:52:32.304Z,54.36
2023-04-03T13:57:36.201Z,54.74
2023-04-03T14:02:40.864Z,50.61
2023-04-03T14:07:44.802Z,52.72
2023-04-03T14:13:18.192Z,52.69
2023-04-03T14:18:24.868Z,52.74
2023-04-03T14:23:30.359Z,50.69
2023-04-03T14:28:34.232Z,50.94
2023-04-03T14:33:39.167Z,52.16
2023-04-03T14:38:44.782Z,50.19
2023-04-03T14:43:49.252Z,50.47
2023-04-03T14:48:53.283Z,49.63
2023-04-03T14:53:57.430Z,50.11
2023-04-03T14:59:05.543Z,49.62
2023-04-03T15:04:20.167Z,51.13
2023-04-03T15:09:26.643Z,51.69
2023-04-03T15:14:36.855Z,50.22
2023-04-03T15:19:41.501Z,49.78
2023-04-03T15:24:45.733Z,50.56
2023-04-03T15:29:49.611Z,51.03
2023-04-03T15:34:55.954Z,50.06
2023-04-03T15:40:00.683Z,50.54
2023-04-03T15:45:05.136Z,50.93
2023-04-03T15:50:09.665Z,51.70
2023-04-03T15:55:14.966Z,52.05
2023-04-03T16:00:21.842Z,51.75
2023-04-03T16:05:26.035Z,52.24
2023-04-03T16:10:30.477Z,52.37
2023-04-03T16:15:36.099Z,51.78
2023-04-03T16:20:42.452Z,51.96
2023-04-03T16:25:48.295Z,51.88
2023-04-03T16:30:52.801Z,51.91
2023-04-03T16:35:57.501Z,51.66
2023-04-03T16:41:10.028Z,51.90
2023-04-03T16:46:14.189Z,52.64
2023-04-03T16:51:18.771Z,53.17
2023-04-03T16:56:23.684Z,52.78
2023-04-03T17:01:27.628Z,53.06
2023-04-03T17:06:34.686Z,53.50
2023-04-03T17:11:40.834Z,53.30
2023-04-03T17:16:48.929Z,53.14
2023-04-03T17:22:00.597Z,53.23
2023-04-03T17:27:11.021Z,53.34
2023-04-03T17:32:18.904Z,53.40
2023-04-03T17:37:23.805Z,53.51
2023-04-03T17:42:35.110Z,53.61
2023-04-03T17:47:47.304Z,54.31
2023-04-03T17:52:52.359Z,54.56
2023-04-03T17:57:59.773Z,54.51
2023-04-03T18:03:08.492Z,54.97
2023-04-03T18:08:15.040Z,55.35
2023-04-03T18:13:33.882Z,55.43
2023-04-03T18:18:41.775Z,55.62
2023-04-03T18:23:51.718Z,55.96
2023-04-03T18:28:59.614Z,56.07
2023-04-03T18:34:05.490Z,56.28
2023-04-03T18:39:11.260Z,56.40
2023-04-03T18:44:20.254Z,56.59
2023-04-03T18:49:25.147Z,56.49
2023-04-03T18:54:32.583Z,56.63
2023-04-03T18:59:40.865Z,57.00
2023-04-03T19:04:49.936Z,56.93
2023-04-03T19:09:57.792Z,57.08
2023-04-03T19:15:04.962Z,57.21
2023-04-03T19:20:14.282Z,57.51
2023-04-03T19:25:21.353Z,57.41
2023-04-03T19:30:26.894Z,57.57
2023-04-03T19:35:36.086Z,57.87
2023-04-03T19:40:44.886Z,57.72
2023-04-03T19:45:51.370Z,57.82
2023-04-03T19:50:58.768Z,58.03
2023-04-03T19:56:04.974Z,57.99
2023-04-03T20:01:11.084Z,58.14
2023-04-03T20:06:17.396Z,58.49
2023-04-03T20:11:24.014Z,58.41
2023-04-03T20:16:28.617Z,58.45
2023-04-03T20:21:34.498Z,59.12
2023-04-03T20:26:44.252Z,59.07
2023-04-03T20:31:49.755Z,58.88
2023-04-03T20:36:54.211Z,59.24
2023-04-03T20:41:58.099Z,59.25
2023-04-03T20:47:02.034Z,59.02
2023-04-03T20:52:05.981Z,59.14
2023-04-03T20:57:09.718Z,59.07
2023-04-03T21:02:13.709Z,59.27
2023-04-03T21:07:56.253Z,59.87
2023-04-03T21:13:37.754Z,59.93
2023-04-03T21:19:20.254Z,60.54
2023-04-03T21:24:24.148Z,60.80
2023-04-03T21:29:28.002Z,60.74
2023-04-03T21:34:32.245Z,60.79
2023-04-03T21:39:36.293Z,60.92
2023-04-03T21:44:41.930Z,61.25
2023-04-03T21:49:45.684Z,61.40
2023-04-03T21:54:49.613Z,61.52
2023-04-03T21:59:53.457Z,61.86
2023-04-03T22:04:57.450Z,62.20
2023-04-03T22:10:01.196Z,62.31
2023-04-03T22:15:05.821Z,62.54
2023-04-03T22:20:10.409Z,62.96
2023-04-03T22:25:14.313Z,63.84
2023-04-03T22:30:18.031Z,63.72
2023-04-03T22:35:24.078Z,63.85
2023-04-03T22:40:30.003Z,64.28
2023-04-03T22:45:35.929Z,64.60
2023-04-03T22:50:41.237Z,64.43
2023-04-03T22:55:46.029Z,64.38
2023-04-03T23:00:49.887Z,64.52
2023-04-03T23:05:53.817Z,64.93
2023-04-03T23:11:01.985Z,65.05
2023-04-03T23:16:07.135Z,65.27
2023-04-03T23:21:10.850Z,65.45
2023-04-03T23:26:14.737Z,65.41
2023-04-03T23:31:18.610Z,65.68
2023-04-03T23:36:22.510Z,65.92
2023-04-03T23:41:26.301Z,66.18
2023-04-03T23:46:30.056Z,66.00
2023-04-03T23:51:34.211Z,66.56
2023-04-03T23:56:38.282Z,66.77
